createdAt,value
2018-02-04T00:00:27.158Z,80.54
2018-02-04T00:02:54.714Z,80.65
2018-02-04T00:05:22.231Z,80.76
2018-02-04T00:07:49.791Z,81.71
2018-02-04T00:10:17.327Z,81.74
2018-02-04T00:12:44.892Z,81.33
2018-02-04T00:15:12.439Z,81.66
2018-02-04T00:17:40.065Z,81.75
2018-02-04T00:20:07.635Z,82.01
2018-02-04T00:22:39.156Z,81.78
2018-02-04T00:25:06.790Z,81.37
2018-02-04T00:27:34.339Z,81.65
2018-02-04T00:30:01.886Z,81.26
2018-02-04T00:32:29.473Z,82.23
2018-02-04T00:34:57.091Z,81.55
2018-02-04T00:37:24.634Z,81.32
2018-02-04T00:39:52.205Z,81.38
2018-02-04T00:42:19.775Z,81.94
2018-02-04T00:44:47.465Z,81.57
2018-02-04T00:47:15.036Z,81.44
2018-02-04T00:49:42.577Z,81.24
2018-02-04T00:52:10.115Z,81.61
2018-02-04T00:54:37.666Z,81.30
2018-02-04T00:57:05.235Z,81.50
2018-02-04T00:59:32.752Z,81.92
2018-02-04T01:02:00.292Z,81.37
2018-02-04T01:04:27.808Z,81.70
2018-02-04T01:06:55.647Z,82.03
2018-02-04T01:09:23.198Z,82.31
2018-02-04T01:11:50.744Z,82.58
2018-02-04T01:14:18.418Z,82.67
2018-02-04T01:16:45.958Z,82.97
2018-02-04T01:19:13.547Z,82.35
2018-02-04T01:21:41.105Z,82.37
2018-02-04T01:24:08.686Z,82.46
2018-02-04T01:26:36.232Z,82.73
2018-02-04T01:29:03.835Z,82.51
2018-02-04T01:31:31.377Z,82.59
2018-02-04T01:33:58.894Z,82.82
2018-02-04T01:36:26.484Z,82.88
2018-02-04T01:38:54.046Z,83.16
2018-02-04T01:41:22.426Z,83.31
2018-02-04T01:43:49.970Z,83.49
2018-02-04T01:46:17.471Z,83.51
2018-02-04T01:48:45.026Z,83.80
2018-02-04T01:51:12.534Z,83.33
2018-02-04T01:53:40.071Z,82.58
2018-02-04T01:56:07.645Z,82.85
2018-02-04T01:58:35.205Z,83.51
2018-02-04T02:01:02.789Z,82.90
2018-02-04T02:03:30.345Z,83.26
2018-02-04T02:05:57.888Z,82.83
2018-02-04T02:08:25.470Z,83.07
2018-02-04T02:10:53.046Z,82.69
2018-02-04T02:13:20.582Z,82.60
2018-02-04T02:15:48.179Z,82.46
2018-02-04T02:18:15.737Z,82.78
2018-02-04T02:20:43.356Z,82.42
2018-02-04T02:23:10.892Z,82.49
2018-02-04T02:25:38.422Z,82.74
2018-02-04T02:28:05.961Z,82.65
2018-02-04T02:30:33.483Z,82.30
2018-02-04T02:33:01.108Z,82.58
2018-02-04T02:35:28.619Z,81.77
2018-02-04T02:37:56.176Z,81.47
2018-02-04T02:40:23.701Z,82.34
2018-02-04T02:42:51.254Z,81.88
2018-02-04T02:45:18.833Z,82.22
2018-02-04T02:47:46.366Z,82.50
2018-02-04T02:50:13.918Z,82.67
2018-02-04T02:52:41.497Z,82.20
2018-02-04T02:55:09.005Z,82.21
2018-02-04T02:57:36.592Z,82.53
2018-02-04T03:00:04.185Z,82.67
2018-02-04T03:02:31.774Z,82.75
2018-02-04T03:04:59.336Z,81.17
2018-02-04T03:07:26.867Z,82.06
2018-02-04T03:09:54.852Z,81.58
2018-02-04T03:12:22.378Z,81.92
2018-02-04T03:14:49.925Z,81.58
2018-02-04T03:17:17.604Z,81.78
2018-02-04T03:19:45.500Z,81.96
2018-02-04T03:22:13.006Z,81.66
2018-02-04T03:24:40.537Z,81.97
2018-02-04T03:27:08.111Z,82.50
2018-02-04T03:29:35.662Z,81.87
2018-02-04T03:32:03.173Z,81.99
2018-02-04T03:34:30.694Z,82.48
2018-02-04T03:36:58.657Z,82.39
2018-02-04T03:39:26.178Z,82.66
2018-02-04T03:41:53.716Z,81.76
2018-02-04T03:44:21.311Z,82.46
2018-02-04T03:46:49.216Z,83.50
2018-02-04T03:49:16.770Z,82.56
2018-02-04T03:51:44.304Z,82.99
2018-02-04T03:54:11.850Z,82.48
2018-02-04T03:56:39.394Z,82.24
2018-02-04T03:59:06.957Z,82.07
2018-02-04T04:01:34.555Z,82.14
2018-02-04T04:04:02.094Z,82.41
2018-02-04T04:06:29.623Z,82.87
2018-02-04T04:08:57.142Z,82.97
2018-02-04T04:11:24.656Z,83.06
2018-02-04T04:13:52.240Z,83.33
2018-02-04T04:16:19.789Z,83.22
2018-02-04T04:18:47.333Z,82.95
2018-02-04T04:21:14.893Z,83.66
2018-02-04T04:23:42.518Z,83.70
2018-02-04T04:26:10.042Z,83.85
2018-02-04T04:28:37.964Z,84.78
2018-02-04T04:31:05.505Z,84.73
2018-02-04T04:33:33.020Z,85.12
2018-02-04T04:36:00.584Z,85.31
2018-02-04T04:38:28.131Z,85.90
2018-02-04T04:40:55.666Z,85.72
2018-02-04T04:43:23.190Z,86.04
2018-02-04T04:45:50.743Z,86.16
2018-02-04T04:48:18.341Z,86.53
2018-02-04T04:50:45.855Z,86.89
2018-02-04T04:53:13.372Z,87.51
2018-02-04T04:55:40.954Z,87.44
2018-02-04T04:58:08.486Z,88.58
2018-02-04T05:00:36.057Z,88.22
2018-02-04T05:03:03.576Z,87.94
2018-02-04T05:05:31.146Z,89.70
2018-02-04T05:07:58.668Z,90.31
2018-02-04T05:10:26.193Z,90.92
2018-02-04T05:12:54.067Z,90.03
2018-02-04T05:15:21.613Z,90.31
2018-02-04T05:17:49.165Z,90.23
2018-02-04T05:20:16.731Z,91.42
2018-02-04T05:22:44.304Z,91.44
2018-02-04T05:25:11.880Z,91.69
2018-02-04T05:27:40.135Z,92.10
2018-02-04T05:30:07.667Z,92.45
2018-02-04T05:32:35.182Z,92.62
2018-02-04T05:35:03.166Z,92.39
2018-02-04T05:37:30.706Z,92.82
2018-02-04T05:39:58.257Z,93.05
2018-02-04T05:42:25.827Z,92.22
2018-02-04T05:44:53.337Z,92.88
2018-02-04T05:47:20.861Z,91.60
2018-02-04T05:49:49.451Z,92.12
2018-02-04T05:52:17.000Z,91.79
2018-02-04T05:54:44.626Z,91.62
2018-02-04T05:57:12.222Z,91.83
2018-02-04T05:59:39.759Z,91.90
2018-02-04T06:02:07.295Z,93.30
2018-02-04T06:04:34.958Z,93.22
2018-02-04T06:07:02.479Z,93.15
2018-02-04T06:09:30.036Z,93.04
2018-02-04T06:11:57.543Z,93.24
2018-02-04T06:14:25.092Z,93.91
2018-02-04T06:16:52.656Z,93.02
2018-02-04T06:19:20.167Z,93.25
2018-02-04T06:21:47.737Z,92.81
2018-02-04T06:24:15.292Z,93.52
2018-02-04T06:26:42.913Z,94.66
2018-02-04T06:29:10.418Z,94.55
2018-02-04T06:31:37.955Z,95.33
2018-02-04T06:34:05.503Z,96.20
2018-02-04T06:36:33.010Z,96.01
2018-02-04T06:39:00.549Z,96.31
2018-02-04T06:41:28.071Z,96.26
2018-02-04T06:43:56.016Z,96.30
2018-02-04T06:46:23.522Z,96.63
2018-02-04T06:48:51.049Z,96.86
2018-02-04T06:51:18.887Z,97.28
2018-02-04T06:53:46.460Z,98.04
2018-02-04T06:56:13.986Z,96.97
2018-02-04T06:58:41.540Z,96.74
2018-02-04T07:01:09.087Z,97.11
2018-02-04T07:03:36.638Z,96.99
2018-02-04T07:06:04.214Z,97.12
2018-02-04T07:08:31.770Z,97.51
2018-02-04T07:10:59.280Z,97.84
2018-02-04T07:13:26.847Z,98.02
2018-02-04T07:15:54.391Z,97.96
2018-02-04T07:18:21.940Z,97.95
2018-02-04T07:20:49.819Z,98.21
2018-02-04T07:23:17.346Z,98.41
2018-02-04T07:25:44.886Z,99.07
2018-02-04T07:28:12.453Z,99.58
2018-02-04T07:30:40.047Z,99.67
2018-02-04T07:33:07.560Z,99.69
2018-02-04T07:35:35.105Z,99.32
2018-02-04T07:38:02.674Z,98.42
2018-02-04T07:40:30.235Z,97.87
2018-02-04T07:42:57.942Z,97.18
2018-02-04T07:45:25.467Z,95.86
2018-02-04T07:47:52.971Z,95.38
2018-02-04T07:50:20.523Z,94.85
2018-02-04T07:52:48.445Z,94.46
2018-02-04T07:55:15.958Z,94.25
2018-02-04T07:57:43.536Z,93.42
2018-02-04T08:00:11.081Z,92.85
2018-02-04T08:02:38.602Z,91.89
2018-02-04T08:05:06.148Z,91.04
2018-02-04T08:07:33.656Z,89.98
2018-02-04T08:10:01.272Z,89.42
2018-02-04T08:12:28.774Z,88.74
2018-02-04T08:14:56.338Z,88.34
2018-02-04T08:17:23.900Z,88.00
2018-02-04T08:19:51.495Z,87.60
2018-02-04T08:22:19.033Z,87.51
2018-02-04T08:24:46.563Z,87.50
2018-02-04T08:27:14.194Z,86.72
2018-02-04T08:29:41.707Z,87.28
2018-02-04T08:32:09.301Z,87.06
2018-02-04T08:34:36.844Z,86.80
2018-02-04T08:37:04.367Z,85.87
2018-02-04T08:39:31.954Z,85.70
2018-02-04T08:41:59.520Z,85.24
2018-02-04T08:44:27.042Z,85.13
2018-02-04T08:46:54.606Z,85.10
2018-02-04T08:49:22.157Z,85.21
2018-02-04T08:51:49.733Z,84.28
2018-02-04T08:54:17.325Z,84.51
2018-02-04T08:56:44.892Z,84.08
2018-02-04T08:59:12.412Z,84.23
2018-02-04T09:01:40.049Z,83.99
2018-02-04T09:04:07.568Z,83.71
2018-02-04T09:06:35.205Z,82.92
2018-02-04T09:09:02.762Z,83.12
2018-02-04T09:11:30.306Z,83.06
2018-02-04T09:13:57.912Z,82.43
2018-02-04T09:16:25.437Z,82.31
2018-02-04T09:18:52.940Z,82.51
2018-02-04T09:21:20.834Z,81.96
2018-02-04T09:23:48.341Z,81.89
2018-02-04T09:26:15.848Z,82.59
2018-02-04T09:28:43.417Z,82.71
2018-02-04T09:31:11.079Z,82.33
2018-02-04T09:33:38.602Z,82.75
2018-02-04T09:36:06.308Z,82.70
2018-02-04T09:38:33.861Z,83.13
2018-02-04T09:41:01.414Z,83.93
2018-02-04T09:43:28.919Z,83.93
2018-02-04T09:45:56.481Z,84.81
2018-02-04T09:48:23.999Z,84.89
2018-02-04T09:50:51.552Z,84.78
2018-02-04T09:53:19.079Z,84.66
2018-02-04T09:55:46.616Z,84.08
2018-02-04T09:58:14.162Z,83.21
2018-02-04T10:00:41.675Z,83.23
2018-02-04T10:03:09.292Z,82.39
2018-02-04T10:05:36.850Z,82.81
2018-02-04T10:08:04.470Z,82.59
2018-02-04T10:10:32.036Z,82.97
2018-02-04T10:12:59.592Z,82.76
2018-02-04T10:15:27.122Z,82.91
2018-02-04T10:17:54.725Z,81.91
2018-02-04T10:20:22.252Z,81.54
2018-02-04T10:22:49.779Z,80.93
2018-02-04T10:25:17.326Z,80.17
2018-02-04T10:27:45.061Z,80.13
2018-02-04T10:30:12.633Z,79.94
2018-02-04T10:32:40.162Z,79.65
2018-02-04T10:35:07.726Z,79.95
2018-02-04T10:37:35.279Z,80.12
2018-02-04T10:40:02.865Z,80.46
2018-02-04T10:42:30.416Z,80.96
2018-02-04T10:44:57.959Z,80.82
2018-02-04T10:47:25.478Z,80.48
2018-02-04T10:49:53.036Z,81.44
2018-02-04T10:52:20.546Z,81.22
2018-02-04T10:54:48.125Z,81.67
2018-02-04T10:57:15.681Z,81.93
2018-02-04T10:59:43.268Z,81.96
2018-02-04T11:02:10.808Z,81.30
2018-02-04T11:04:38.329Z,81.31
2018-02-04T11:07:05.898Z,81.37
2018-02-04T11:09:33.394Z,80.71
2018-02-04T11:12:00.958Z,80.08
2018-02-04T11:14:28.551Z,80.66
2018-02-04T11:16:56.103Z,80.91
2018-02-04T11:19:23.688Z,81.08
2018-02-04T11:21:51.187Z,80.09
2018-02-04T11:24:18.716Z,80.34
2018-02-04T11:26:46.599Z,80.12
2018-02-04T11:29:14.170Z,79.88
2018-02-04T11:31:41.703Z,78.56
2018-02-04T11:34:09.294Z,77.40
2018-02-04T11:36:36.864Z,77.43
2018-02-04T11:39:04.411Z,77.47
2018-02-04T11:41:31.972Z,76.91
2018-02-04T11:43:59.552Z,76.23
2018-02-04T11:46:27.062Z,75.65
2018-02-04T11:48:54.642Z,76.11
2018-02-04T11:51:22.142Z,76.39
2018-02-04T11:53:49.678Z,76.60
2018-02-04T11:56:17.198Z,76.45
2018-02-04T11:58:44.772Z,75.89
2018-02-04T12:01:12.333Z,75.43
2018-02-04T12:03:39.886Z,76.37
2018-02-04T12:06:07.406Z,76.51
2018-02-04T12:08:34.944Z,76.86
2018-02-04T12:11:02.513Z,77.29
2018-02-04T12:13:30.057Z,76.75
2018-02-04T12:15:57.729Z,76.97
2018-02-04T12:18:25.281Z,77.12
2018-02-04T12:20:52.820Z,77.64
2018-02-04T12:23:20.384Z,77.16
2018-02-04T12:25:47.914Z,77.31
2018-02-04T12:28:15.477Z,76.77
2018-02-04T12:30:43.010Z,77.85
2018-02-04T12:33:10.540Z,77.54
2018-02-04T12:35:38.462Z,77.66
2018-02-04T12:38:05.999Z,78.33
2018-02-04T12:40:33.507Z,78.75
2018-02-04T12:43:01.093Z,78.74
2018-02-04T12:45:28.623Z,78.21
2018-02-04T12:47:56.165Z,77.66
2018-02-04T12:50:24.088Z,77.53
2018-02-04T12:52:51.596Z,76.40
2018-02-04T12:55:19.144Z,76.36
2018-02-04T12:57:46.695Z,76.12
2018-02-04T13:00:14.603Z,75.60
2018-02-04T13:02:42.159Z,75.38
2018-02-04T13:05:09.720Z,75.17
2018-02-04T13:07:37.310Z,73.43
2018-02-04T13:10:04.836Z,74.15
2018-02-04T13:12:32.362Z,74.61
2018-02-04T13:14:59.891Z,74.18
2018-02-04T13:17:27.434Z,74.09
2018-02-04T13:19:54.959Z,74.74
2018-02-04T13:22:22.475Z,73.69
2018-02-04T13:24:50.037Z,72.51
2018-02-04T13:27:17.556Z,74.45
2018-02-04T13:29:45.148Z,75.93
2018-02-04T13:32:12.668Z,75.97
2018-02-04T13:34:40.174Z,76.92
2018-02-04T13:37:08.102Z,77.58
2018-02-04T13:39:35.647Z,77.84
2018-02-04T13:42:03.178Z,77.55
2018-02-04T13:44:30.743Z,76.78
2018-02-04T13:46:58.290Z,77.17
2018-02-04T13:49:25.910Z,77.26
2018-02-04T13:51:53.482Z,77.46
2018-02-04T13:54:21.009Z,79.71
2018-02-04T13:56:48.576Z,81.37
2018-02-04T13:59:16.157Z,83.07
2018-02-04T14:01:43.685Z,84.13
2018-02-04T14:04:11.252Z,83.82
2018-02-04T14:06:39.184Z,84.36
2018-02-04T14:09:06.824Z,85.71
2018-02-04T14:11:34.390Z,87.61
2018-02-04T14:14:02.291Z,88.55
2018-02-04T14:16:29.818Z,88.97
2018-02-04T14:18:57.393Z,89.09
2018-02-04T14:21:25.309Z,90.23
2018-02-04T14:23:52.851Z,90.75
2018-02-04T14:26:20.355Z,90.69
2018-02-04T14:28:48.258Z,90.49
2018-02-04T14:31:15.808Z,90.04
2018-02-04T14:33:43.392Z,90.37
2018-02-04T14:36:11.281Z,90.44
2018-02-04T14:38:38.826Z,90.87
2018-02-04T14:41:06.354Z,91.55
2018-02-04T14:43:33.924Z,92.64
2018-02-04T14:46:01.455Z,93.56
2018-02-04T14:48:29.010Z,94.29
2018-02-04T14:50:56.922Z,95.56
2018-02-04T14:53:24.436Z,95.84
2018-02-04T14:55:51.947Z,96.37
2018-02-04T14:58:19.554Z,96.76
2018-02-04T15:00:47.154Z,96.72
2018-02-04T15:03:14.745Z,97.23
2018-02-04T15:05:42.292Z,98.02
2018-02-04T15:08:09.836Z,98.43
2018-02-04T15:10:37.691Z,98.61
2018-02-04T15:13:05.442Z,99.20
2018-02-04T15:15:32.987Z,99.85
2018-02-04T15:18:00.524Z,99.78
2018-02-04T15:20:28.394Z,99.96
2018-02-04T15:22:55.981Z,99.97
2018-02-04T15:25:23.491Z,100.00
2018-02-04T15:27:51.207Z,100.00
2018-02-04T15:30:19.542Z,100.00
2018-02-04T15:32:47.094Z,99.99
2018-02-04T15:35:14.652Z,100.00
2018-02-04T15:37:42.835Z,100.00
2018-02-04T15:40:10.382Z,100.00
2018-02-04T15:42:37.928Z,100.00
2018-02-04T15:45:05.819Z,100.00
2018-02-04T15:47:33.368Z,99.98
2018-02-04T15:50:00.901Z,99.90
2018-02-04T15:52:28.576Z,99.45
2018-02-04T15:54:56.114Z,99.57
2018-02-04T15:57:23.669Z,99.62
2018-02-04T15:59:51.219Z,99.78
2018-02-04T16:02:18.823Z,100.00
2018-02-04T16:04:46.351Z,100.00
2018-02-04T16:07:13.997Z,100.00
2018-02-04T16:09:41.608Z,100.00
2018-02-04T16:12:09.165Z,100.00
2018-02-04T16:14:36.745Z,100.00
2018-02-04T16:17:04.619Z,100.00
2018-02-04T16:19:32.160Z,100.00
2018-02-04T16:21:59.721Z,100.00
2018-02-04T16:24:27.297Z,100.00
2018-02-04T16:26:54.859Z,100.00
2018-02-04T16:29:22.800Z,100.00
2018-02-04T16:31:50.339Z,100.00
2018-02-04T16:34:17.857Z,100.00
2018-02-04T16:36:45.423Z,99.98
2018-02-04T16:39:12.963Z,100.00
2018-02-04T16:41:40.857Z,99.98
2018-02-04T16:44:08.412Z,100.00
2018-02-04T16:46:35.985Z,99.65
2018-02-04T16:49:03.940Z,99.67
2018-02-04T16:51:31.478Z,99.71
2018-02-04T16:53:59.068Z,99.80
2018-02-04T16:56:34.484Z,99.67
2018-02-04T16:59:02.033Z,99.70
2018-02-04T17:01:29.580Z,99.51
2018-02-04T17:03:57.120Z,99.56
2018-02-04T17:06:24.679Z,99.37
2018-02-04T17:08:52.245Z,99.56
2018-02-04T17:11:19.893Z,99.41
2018-02-04T17:13:47.432Z,99.30
2018-02-04T17:16:15.275Z,99.12
2018-02-04T17:18:42.943Z,98.70
2018-02-04T17:21:10.475Z,98.70
2018-02-04T17:23:38.100Z,98.72
2018-02-04T17:26:05.635Z,98.62
2018-02-04T17:28:33.189Z,98.84
2018-02-04T17:31:01.130Z,98.53
2018-02-04T17:33:28.701Z,98.15
2018-02-04T17:35:56.256Z,98.41
2018-02-04T17:38:23.814Z,98.59
2018-02-04T17:40:51.494Z,98.61
2018-02-04T17:43:19.184Z,98.33
2018-02-04T17:45:46.748Z,98.35
2018-02-04T17:48:14.346Z,98.23
2018-02-04T17:50:41.921Z,98.09
2018-02-04T17:53:09.494Z,98.41
2018-02-04T17:55:37.117Z,98.04
2018-02-04T17:58:04.738Z,98.25
2018-02-04T18:00:32.264Z,98.05
2018-02-04T18:02:59.827Z,98.21
2018-02-04T18:05:27.366Z,98.00
2018-02-04T18:07:55.367Z,98.27
2018-02-04T18:10:22.902Z,98.23
2018-02-04T18:12:50.477Z,98.32
2018-02-04T18:15:18.068Z,98.31
2018-02-04T18:17:45.611Z,98.11
2018-02-04T18:20:13.565Z,98.04
2018-02-04T18:22:41.127Z,98.00
2018-02-04T18:25:08.686Z,97.88
2018-02-04T18:27:36.232Z,97.96
2018-02-04T18:30:04.004Z,97.74
2018-02-04T18:32:31.600Z,97.93
2018-02-04T18:34:59.172Z,97.92
2018-02-04T18:37:26.725Z,97.74
2018-02-04T18:39:54.709Z,97.53
2018-02-04T18:42:22.372Z,97.68
2018-02-04T18:44:50.046Z,97.81
2018-02-04T18:47:17.725Z,97.59
2018-02-04T18:49:45.271Z,97.46
2018-02-04T18:52:13.081Z,97.58
2018-02-04T18:54:41.266Z,97.55
2018-02-04T18:57:08.854Z,97.75
2018-02-04T18:59:36.396Z,97.59
2018-02-04T19:02:03.936Z,97.50
2018-02-04T19:04:31.871Z,97.61
2018-02-04T19:06:59.438Z,97.55
2018-02-04T19:09:26.982Z,97.47
2018-02-04T19:11:54.582Z,97.55
2018-02-04T19:14:22.165Z,96.91
2018-02-04T19:16:49.832Z,97.24
2018-02-04T19:19:17.760Z,97.45
2018-02-04T19:21:45.328Z,97.42
2018-02-04T19:24:13.022Z,97.08
2018-02-04T19:26:40.671Z,97.15
2018-02-04T19:29:08.251Z,97.19
2018-02-04T19:31:36.236Z,97.08
2018-02-04T19:34:04.079Z,96.91
2018-02-04T19:36:31.854Z,96.78
2018-02-04T19:38:59.938Z,96.77
2018-02-04T19:41:27.667Z,96.83
2018-02-04T19:43:55.489Z,97.02
2018-02-04T19:46:23.430Z,96.79
2018-02-04T19:48:51.147Z,97.01
2018-02-04T19:51:19.029Z,96.89
2018-02-04T19:53:46.868Z,96.81
2018-02-04T19:56:14.446Z,97.14
2018-02-04T19:58:41.980Z,97.33
2018-02-04T20:01:09.834Z,96.96
2018-02-04T20:03:37.371Z,97.03
2018-02-04T20:06:04.930Z,97.15
2018-02-04T20:08:32.762Z,97.41
2018-02-04T20:11:00.637Z,97.23
2018-02-04T20:13:28.518Z,97.46
2018-02-04T20:15:56.368Z,97.60
2018-02-04T20:18:24.177Z,97.32
2018-02-04T20:20:51.833Z,97.81
2018-02-04T20:23:19.358Z,97.53
2018-02-04T20:25:46.905Z,97.42
2018-02-04T20:28:14.925Z,97.61
2018-02-04T20:30:42.513Z,97.65
2018-02-04T20:33:20.949Z,97.48
2018-02-04T20:35:48.580Z,97.53
2018-02-04T20:38:16.106Z,97.57
2018-02-04T20:40:43.634Z,97.76
2018-02-04T20:43:11.180Z,97.55
2018-02-04T20:45:38.746Z,97.52
2018-02-04T20:48:06.326Z,97.36
2018-02-04T20:50:33.917Z,97.66
2018-02-04T20:53:01.482Z,97.72
2018-02-04T20:55:29.034Z,97.42
2018-02-04T20:57:56.663Z,97.71
2018-02-04T21:00:24.179Z,97.48
2018-02-04T21:02:51.729Z,97.46
2018-02-04T21:05:19.301Z,97.59
2018-02-04T21:07:46.810Z,97.88
2018-02-04T21:10:14.417Z,97.84
2018-02-04T21:12:42.154Z,97.64
2018-02-04T21:15:09.676Z,97.68
2018-02-04T21:17:37.215Z,97.78
2018-02-04T21:20:04.859Z,97.65
2018-02-04T21:22:32.734Z,97.69
2018-02-04T21:25:00.279Z,97.71
2018-02-04T21:27:27.787Z,97.83
2018-02-04T21:29:55.353Z,97.61
2018-02-04T21:32:22.939Z,97.72
2018-02-04T21:34:50.483Z,97.98
2018-02-04T21:37:18.399Z,97.87
2018-02-04T21:39:45.967Z,97.83
2018-02-04T21:42:13.522Z,97.86
2018-02-04T21:44:41.084Z,97.84
2018-02-04T21:47:08.629Z,97.77
2018-02-04T21:49:36.181Z,97.88
2018-02-04T21:52:03.725Z,98.04
2018-02-04T21:54:31.277Z,97.90
2018-02-04T21:56:58.826Z,98.18
2018-02-04T21:59:26.391Z,98.02
2018-02-04T22:01:53.961Z,98.00
2018-02-04T22:04:21.955Z,97.88
2018-02-04T22:06:49.493Z,97.94
2018-02-04T22:09:17.015Z,97.95
2018-02-04T22:11:44.623Z,98.41
2018-02-04T22:14:12.163Z,97.64
2018-02-04T22:16:39.722Z,97.88
2018-02-04T22:19:07.381Z,98.17
2018-02-04T22:21:34.935Z,97.58
2018-02-04T22:24:02.471Z,97.74
2018-02-04T22:26:30.023Z,98.01
2018-02-04T22:28:57.576Z,98.11
2018-02-04T22:31:25.496Z,98.06
2018-02-04T22:33:53.015Z,98.17
2018-02-04T22:36:20.539Z,98.17
2018-02-04T22:38:48.480Z,98.31
2018-02-04T22:41:16.029Z,98.57
2018-02-04T22:43:43.587Z,98.71
2018-02-04T22:46:11.501Z,99.03
2018-02-04T22:48:39.068Z,98.97
2018-02-04T22:51:06.603Z,99.17
2018-02-04T22:53:34.156Z,99.05
2018-02-04T22:56:01.722Z,99.04
2018-02-04T22:58:29.309Z,98.96
2018-02-04T23:00:56.890Z,98.80
2018-02-04T23:03:24.422Z,98.70
2018-02-04T23:05:52.397Z,98.33
2018-02-04T23:08:19.937Z,98.16
2018-02-04T23:10:47.492Z,97.94
2018-02-04T23:13:15.059Z,97.89
2018-02-04T23:15:42.578Z,97.87
2018-02-04T23:18:10.125Z,97.67
2018-02-04T23:20:37.724Z,97.70
2018-02-04T23:23:05.288Z,97.57
2018-02-04T23:25:32.856Z,97.64
2018-02-04T23:28:00.395Z,97.68
2018-02-04T23:30:28.318Z,97.60
2018-02-04T23:32:55.873Z,97.55
2018-02-04T23:35:23.429Z,97.78
2018-02-04T23:37:51.007Z,97.67
2018-02-04T23:40:18.560Z,97.56
2018-02-04T23:42:46.089Z,97.47
2018-02-04T23:45:13.637Z,97.33
2018-02-04T23:47:41.147Z,97.39
2018-02-04T23:50:08.731Z,97.41
2018-02-04T23:52:36.333Z,97.52
2018-02-04T23:55:03.882Z,97.29
2018-02-04T23:57:31.423Z,97.41
2018-02-04T23:59:59.019Z,97.41
